Share

Deer Park, AL (36529)

Markwood (KALCITRO1) Elev 308 ft | 31.08 °N, 88.24 °W | Change Station
Active Advisory: Flood Warning Active Notice: Record Report

Current weather conditions updated 14 seconds ago

Overcast
Overcast
56.7 °F
Feels Like 56.7 °F
N
0.0
Wind Variable Wind from East
Gusts 4.0 mph
Sunrise 6:21 AM
Sunset 7:23 PM
Moon Waning Gibbous

Tomorrow is forecast to be Much Warmer than today.

Pressure 30.09 in
Visibility 10.0 miles
Clouds Mostly Cloudy 1600 ft
Overcast 2300 ft
Dew Point 54 °F
Humidity 89%
Rainfall 0.47 in
Snow Depth Not available.
UV 0 out of 16
Pollen .90 out of 12
Air Quality Not available.
Flu Activity Sporadic
METAR KMOB 190156Z 36011G22KT 10SM BKN016 OVC023 14/13 A3009 RMK AO2 SLP189 T01440128

More Conditions Fewer Conditions

Pressure 30.09 in
Visibility 10.0 miles
Clouds Mostly Cloudy 1600 ft
Overcast 2300 ft
Dew Point 54 °F
Humidity 89%
Rainfall 0.47 in
Snow Depth Not available.
UV 0 out of 16
Pollen .90 out of 12
Air Quality Not available.
Flu Activity Sporadic
METAR KMOB 190156Z 36011G22KT 10SM BKN016 OVC023 14/13 A3009 RMK AO2 SLP189 T01440128

More Conditions Fewer Conditions

10-Day Weather Forecast

Almanac

Astronomy

Apr. 18, 2014 Rise Set
Actual Time 6:21 AM CDT 7:23 PM CDT
Civil Twilight 5:56 AM CDT 7:48 PM CDT
Nautical Twilight 5:27 AM CDT 8:18 PM CDT
Astronomical Twilight 4:56 AM CDT 8:48 PM CDT
Moon 11:00 PM CDT (4/18) 8:52 AM CDT (4/18)
Length of Visible Light 13h 51m
Length of Day
13h 01m
Tomorrow will be 1m 47s longer.
Waning Gibbous, 83% of the Moon is Illuminated
Today
Waning Gibbous
Apr 22
Last Quarter
Apr 29
New
May 6
First Quarter
May 14
Full

Today's Extremes

State Highs State Lows

Community

  • Sunset Silhouettes
    Sunset Silhouettes
  • FL sunset Perico Isle
    FL sunset Perico Isle
  • Cloudy spring view
    Cloudy spring view
  • Old barn
    Old barn
  • What's for Lunch?
    What's for Lunch?

WunderPhotos

Upload Photos

1,702,600 photos uploaded!

WunderBlogs® & News

Nearby

Snow Depth

Station Depth Elevation
No new snow has been reported.

Coastal Water Temperatures

Place Temperature
Mobile State Docks, AL 63.0 °F
Coast Guard Sector Mobile, AL 64.0 °F

Earthquake Activity

City Distance Mag. Time & Date
No recent earthquake activity has been reported nearby.
Minimum magnitude displayed is 2.5.

Nearby Weather Stations

Station Location Temp. Dew Point Humidity Wind Precip. Elev Updated Type
Markwood, Citronelle, AL 56.7 °F 54 °F 89% East  at  0.0 mph 0.00 in / hr 308 ft 9:48 PM CDT Normal
RAWS GREENE MS, Leakesville, MS 59 °F 53 °F 80% NNE  at  7 mph 0.00 in / hr 155 ft 9:14 PM CDT MADIS

Show More Stations Show Fewer Stations

What do you think?

We're not finished. Please let us know what you like, what you don't like, and what you are still missing.